sensor_id;sensor_type;location;lat;lon;timestamp;temperature;humidity
23579;DHT22;11967;50.852;4.400;2022-11-14T00:00:03;14.60;99.90
23579;DHT22;11967;50.852;4.400;2022-11-14T00:02:30;14.40;99.90
23579;DHT22;11967;50.852;4.400;2022-11-14T00:04:58;14.40;99.90
23579;DHT22;11967;50.852;4.400;2022-11-14T00:07:24;14.40;99.90
23579;DHT22;11967;50.852;4.400;2022-11-14T00:09:50;14.40;99.90
23579;DHT22;11967;50.852;4.400;2022-11-14T00:12:15;14.40;99.90
23579;DHT22;11967;50.852;4.400;2022-11-14T00:14:41;14.40;99.90
23579;DHT22;11967;50.852;4.400;2022-11-14T00:17:07;14.30;99.90
23579;DHT22;11967;50.852;4.400;2022-11-14T00:19:32;14.40;99.90
23579;DHT22;11967;50.852;4.400;2022-11-14T00:21:58;14.40;99.90
23579;DHT22;11967;50.852;4.400;2022-11-14T00:24:24;14.40;99.90
23579;DHT22;11967;50.852;4.400;2022-11-14T00:26:50;14.40;99.90
23579;DHT22;11967;50.852;4.400;2022-11-14T00:29:15;14.50;99.90
23579;DHT22;11967;50.852;4.400;2022-11-14T00:31:41;14.50;99.90
23579;DHT22;11967;50.852;4.400;2022-11-14T00:34:07;14.60;99.90
23579;DHT22;11967;50.852;4.400;2022-11-14T00:36:33;14.60;99.90
23579;DHT22;11967;50.852;4.400;2022-11-14T00:38:58;14.60;99.90
23579;DHT22;11967;50.852;4.400;2022-11-14T00:41:24;14.60;99.90
23579;DHT22;11967;50.852;4.400;2022-11-14T00:43:50;14.60;99.90
23579;DHT22;11967;50.852;4.400;2022-11-14T00:46:15;14.50;99.90
23579;DHT22;11967;50.852;4.400;2022-11-14T00:48:42;14.40;99.90
23579;DHT22;11967;50.852;4.400;2022-11-14T00:51:08;14.50;99.90
23579;DHT22;11967;50.852;4.400;2022-11-14T00:53:34;14.50;99.90
23579;DHT22;11967;50.852;4.400;2022-11-14T00:56:00;14.50;99.90
23579;DHT22;11967;50.852;4.400;2022-11-14T00:58:25;14.50;99.90
23579;DHT22;11967;50.852;4.400;2022-11-14T01:00:51;14.50;99.90
23579;DHT22;11967;50.852;4.400;2022-11-14T01:03:18;14.60;99.90
23579;DHT22;11967;50.852;4.400;2022-11-14T01:05:46;14.50;99.90
23579;DHT22;11967;50.852;4.400;2022-11-14T01:08:13;14.50;99.90
23579;DHT22;11967;50.852;4.400;2022-11-14T01:10:44;14.40;99.90
23579;DHT22;11967;50.852;4.400;2022-11-14T01:13:10;14.40;99.90
23579;DHT22;11967;50.852;4.400;2022-11-14T01:15:44;14.50;99.90
23579;DHT22;11967;50.852;4.400;2022-11-14T01:18:11;14.50;99.90
23579;DHT22;11967;50.852;4.400;2022-11-14T01:20:38;14.60;99.90
23579;DHT22;11967;50.852;4.400;2022-11-14T01:23:05;14.50;99.90
23579;DHT22;11967;50.852;4.400;2022-11-14T01:25:33;14.50;99.90
23579;DHT22;11967;50.852;4.400;2022-11-14T01:27:58;14.50;99.90
23579;DHT22;11967;50.852;4.400;2022-11-14T01:30:24;14.50;99.90
23579;DHT22;11967;50.852;4.400;2022-11-14T01:32:49;14.60;99.90
23579;DHT22;11967;50.852;4.400;2022-11-14T01:35:16;14.60;99.90
23579;DHT22;11967;50.852;4.400;2022-11-14T01:37:42;14.40;99.90
23579;DHT22;11967;50.852;4.400;2022-11-14T01:40:08;14.40;99.90
23579;DHT22;11967;50.852;4.400;2022-11-14T01:42:34;14.30;99.90
23579;DHT22;11967;50.852;4.400;2022-11-14T01:44:59;14.40;99.90
23579;DHT22;11967;50.852;4.400;2022-11-14T01:47:28;14.40;99.90
23579;DHT22;11967;50.852;4.400;2022-11-14T01:49:59;14.40;99.90
23579;DHT22;11967;50.852;4.400;2022-11-14T01:52:33;14.40;99.90
23579;DHT22;11967;50.852;4.400;2022-11-14T01:55:02;14.50;99.90
23579;DHT22;11967;50.852;4.400;2022-11-14T01:57:33;14.50;99.90
23579;DHT22;11967;50.852;4.400;2022-11-14T02:00:03;14.40;99.90
23579;DHT22;11967;50.852;4.400;2022-11-14T02:02:30;14.30;99.90
23579;DHT22;11967;50.852;4.400;2022-11-14T02:05:00;14.40;99.90
23579;DHT22;11967;50.852;4.400;2022-11-14T02:07:29;14.40;99.90
23579;DHT22;11967;50.852;4.400;2022-11-14T02:09:56;14.40;99.90
23579;DHT22;11967;50.852;4.400;2022-11-14T02:12:23;14.30;99.90
23579;DHT22;11967;50.852;4.400;2022-11-14T02:14:53;14.20;99.90
23579;DHT22;11967;50.852;4.400;2022-11-14T02:17:20;14.20;99.90
23579;DHT22;11967;50.852;4.400;2022-11-14T02:19:55;14.30;99.90
23579;DHT22;11967;50.852;4.400;2022-11-14T02:22:22;14.10;99.90
23579;DHT22;11967;50.852;4.400;2022-11-14T02:24:47;14.10;99.90
23579;DHT22;11967;50.852;4.400;2022-11-14T02:27:13;14.10;99.90
23579;DHT22;11967;50.852;4.400;2022-11-14T02:29:40;14.20;99.90
23579;DHT22;11967;50.852;4.400;2022-11-14T02:32:05;14.30;99.90
23579;DHT22;11967;50.852;4.400;2022-11-14T02:34:31;14.20;99.90
23579;DHT22;11967;50.852;4.400;2022-11-14T02:36:57;14.10;99.90
23579;DHT22;11967;50.852;4.400;2022-11-14T02:39:23;14.10;99.90
23579;DHT22;11967;50.852;4.400;2022-11-14T02:41:49;14.10;99.90
23579;DHT22;11967;50.852;4.400;2022-11-14T02:44:15;14.00;99.90
23579;DHT22;11967;50.852;4.400;2022-11-14T02:46:40;13.90;99.90
23579;DHT22;11967;50.852;4.400;2022-11-14T02:49:06;14.00;99.90
23579;DHT22;11967;50.852;4.400;2022-11-14T02:51:32;13.90;99.90
23579;DHT22;11967;50.852;4.400;2022-11-14T02:53:57;13.90;99.90
23579;DHT22;11967;50.852;4.400;2022-11-14T02:56:23;13.90;99.90
23579;DHT22;11967;50.852;4.400;2022-11-14T02:58:48;13.90;99.90
23579;DHT22;11967;50.852;4.400;2022-11-14T03:01:14;13.90;99.90
23579;DHT22;11967;50.852;4.400;2022-11-14T03:03:39;13.90;99.90
23579;DHT22;11967;50.852;4.400;2022-11-14T03:06:05;13.90;99.90
23579;DHT22;11967;50.852;4.400;2022-11-14T03:08:31;14.00;99.90
23579;DHT22;11967;50.852;4.400;2022-11-14T03:11:07;14.00;99.90
23579;DHT22;11967;50.852;4.400;2022-11-14T03:13:33;14.10;99.90
23579;DHT22;11967;50.852;4.400;2022-11-14T03:16:09;14.10;99.90
23579;DHT22;11967;50.852;4.400;2022-11-14T03:18:35;14.10;99.90
23579;DHT22;11967;50.852;4.400;2022-11-14T03:21:08;14.10;99.90
23579;DHT22;11967;50.852;4.400;2022-11-14T03:23:34;14.10;99.90
23579;DHT22;11967;50.852;4.400;2022-11-14T03:26:01;14.00;99.90
23579;DHT22;11967;50.852;4.400;2022-11-14T03:28:27;14.00;99.90
23579;DHT22;11967;50.852;4.400;2022-11-14T03:30:53;14.00;99.90
23579;DHT22;11967;50.852;4.400;2022-11-14T03:33:18;14.00;99.90
23579;DHT22;11967;50.852;4.400;2022-11-14T03:35:44;14.00;99.90
23579;DHT22;11967;50.852;4.400;2022-11-14T03:38:10;13.90;99.90
23579;DHT22;11967;50.852;4.400;2022-11-14T03:40:39;13.90;99.90
23579;DHT22;11967;50.852;4.400;2022-11-14T03:43:05;13.90;99.90
23579;DHT22;11967;50.852;4.400;2022-11-14T03:45:30;13.80;99.90
23579;DHT22;11967;50.852;4.400;2022-11-14T03:47:56;13.80;99.90
23579;DHT22;11967;50.852;4.400;2022-11-14T03:50:21;13.70;99.90
23579;DHT22;11967;50.852;4.400;2022-11-14T03:52:50;13.60;99.90
23579;DHT22;11967;50.852;4.400;2022-11-14T03:55:16;13.60;99.90
23579;DHT22;11967;50.852;4.400;2022-11-14T03:57:41;13.60;99.90
23579;DHT22;11967;50.852;4.400;2022-11-14T04:00:08;13.60;99.90
23579;DHT22;11967;50.852;4.400;2022-11-14T04:02:34;13.70;99.90
23579;DHT22;11967;50.852;4.400;2022-11-14T04:05:00;13.70;99.90
23579;DHT22;11967;50.852;4.400;2022-11-14T04:07:26;13.60;99.90
23579;DHT22;11967;50.852;4.400;2022-11-14T04:09:51;13.60;99.90
23579;DHT22;11967;50.852;4.400;2022-11-14T04:12:17;13.60;99.90
23579;DHT22;11967;50.852;4.400;2022-11-14T04:14:43;13.50;99.90
23579;DHT22;11967;50.852;4.400;2022-11-14T04:17:09;13.40;99.90
23579;DHT22;11967;50.852;4.400;2022-11-14T04:19:34;13.40;99.90
23579;DHT22;11967;50.852;4.400;2022-11-14T04:22:00;13.30;99.90
23579;DHT22;11967;50.852;4.400;2022-11-14T04:24:26;13.20;99.90
23579;DHT22;11967;50.852;4.400;2022-11-14T04:26:51;13.30;99.90
23579;DHT22;11967;50.852;4.400;2022-11-14T04:29:17;13.20;99.90
23579;DHT22;11967;50.852;4.400;2022-11-14T04:31:43;13.10;99.90
23579;DHT22;11967;50.852;4.400;2022-11-14T04:34:08;13.20;99.90
23579;DHT22;11967;50.852;4.400;2022-11-14T04:36:34;13.20;99.90
23579;DHT22;11967;50.852;4.400;2022-11-14T04:39:00;13.20;99.90
23579;DHT22;11967;50.852;4.400;2022-11-14T04:41:25;13.10;99.90
23579;DHT22;11967;50.852;4.400;2022-11-14T04:43:51;13.10;99.90
23579;DHT22;11967;50.852;4.400;2022-11-14T04:46:17;13.10;99.90
23579;DHT22;11967;50.852;4.400;2022-11-14T04:48:42;13.20;99.90
23579;DHT22;11967;50.852;4.400;2022-11-14T04:51:08;13.30;99.90
23579;DHT22;11967;50.852;4.400;2022-11-14T04:53:34;13.20;99.90
23579;DHT22;11967;50.852;4.400;2022-11-14T04:55:59;13.20;99.90
23579;DHT22;11967;50.852;4.400;2022-11-14T04:58:25;13.20;99.90
23579;DHT22;11967;50.852;4.400;2022-11-14T05:00:51;13.20;99.90
23579;DHT22;11967;50.852;4.400;2022-11-14T05:03:17;13.20;99.90
23579;DHT22;11967;50.852;4.400;2022-11-14T05:05:43;13.20;99.90
23579;DHT22;11967;50.852;4.400;2022-11-14T05:08:09;13.20;99.90
23579;DHT22;11967;50.852;4.400;2022-11-14T05:10:34;13.20;99.90
23579;DHT22;11967;50.852;4.400;2022-11-14T05:13:00;13.10;99.90
23579;DHT22;11967;50.852;4.400;2022-11-14T05:15:26;13.20;99.90
23579;DHT22;11967;50.852;4.400;2022-11-14T05:17:52;13.30;99.90
23579;DHT22;11967;50.852;4.400;2022-11-14T05:20:18;13.30;99.90
23579;DHT22;11967;50.852;4.400;2022-11-14T05:22:43;13.30;99.90
23579;DHT22;11967;50.852;4.400;2022-11-14T05:25:09;13.30;99.90
23579;DHT22;11967;50.852;4.400;2022-11-14T05:27:35;13.30;99.90
23579;DHT22;11967;50.852;4.400;2022-11-14T05:30:00;13.30;99.90
23579;DHT22;11967;50.852;4.400;2022-11-14T05:32:26;13.30;99.90
23579;DHT22;11967;50.852;4.400;2022-11-14T05:34:51;13.30;99.90
23579;DHT22;11967;50.852;4.400;2022-11-14T05:37:18;13.10;99.90
23579;DHT22;11967;50.852;4.400;2022-11-14T05:39:44;13.10;99.90
23579;DHT22;11967;50.852;4.400;2022-11-14T05:42:09;13.20;99.90
23579;DHT22;11967;50.852;4.400;2022-11-14T05:44:35;13.10;99.90
23579;DHT22;11967;50.852;4.400;2022-11-14T05:47:00;13.00;99.90
23579;DHT22;11967;50.852;4.400;2022-11-14T05:49:26;13.10;99.90
23579;DHT22;11967;50.852;4.400;2022-11-14T05:51:52;13.10;99.90
23579;DHT22;11967;50.852;4.400;2022-11-14T05:54:17;13.10;99.90
23579;DHT22;11967;50.852;4.400;2022-11-14T05:56:46;13.10;99.90
23579;DHT22;11967;50.852;4.400;2022-11-14T05:59:11;13.00;99.90
23579;DHT22;11967;50.852;4.400;2022-11-14T06:01:37;13.10;99.90
23579;DHT22;11967;50.852;4.400;2022-11-14T06:04:04;13.10;99.90
23579;DHT22;11967;50.852;4.400;2022-11-14T06:06:30;13.00;99.90
23579;DHT22;11967;50.852;4.400;2022-11-14T06:08:55;12.90;99.90
23579;DHT22;11967;50.852;4.400;2022-11-14T06:11:21;12.80;99.90
23579;DHT22;11967;50.852;4.400;2022-11-14T06:13:47;12.80;99.90
23579;DHT22;11967;50.852;4.400;2022-11-14T06:16:15;12.90;99.90
23579;DHT22;11967;50.852;4.400;2022-11-14T06:18:42;12.90;99.90
23579;DHT22;11967;50.852;4.400;2022-11-14T06:21:14;12.80;99.90
23579;DHT22;11967;50.852;4.400;2022-11-14T06:23:40;12.80;99.90
23579;DHT22;11967;50.852;4.400;2022-11-14T06:26:11;12.70;99.90
23579;DHT22;11967;50.852;4.400;2022-11-14T06:28:37;12.90;99.90
23579;DHT22;11967;50.852;4.400;2022-11-14T06:31:04;12.90;99.90
23579;DHT22;11967;50.852;4.400;2022-11-14T06:33:33;12.90;99.90
23579;DHT22;11967;50.852;4.400;2022-11-14T06:36:00;12.90;99.90
23579;DHT22;11967;50.852;4.400;2022-11-14T06:38:27;12.90;99.90
23579;DHT22;11967;50.852;4.400;2022-11-14T06:41:05;12.90;99.90
23579;DHT22;11967;50.852;4.400;2022-11-14T06:43:34;13.00;99.90
23579;DHT22;11967;50.852;4.400;2022-11-14T06:46:01;12.90;99.90
23579;DHT22;11967;50.852;4.400;2022-11-14T06:48:27;12.90;99.90
23579;DHT22;11967;50.852;4.400;2022-11-14T06:50:54;12.80;99.90
23579;DHT22;11967;50.852;4.400;2022-11-14T06:53:21;12.80;99.90
23579;DHT22;11967;50.852;4.400;2022-11-14T06:55:57;12.80;99.90
23579;DHT22;11967;50.852;4.400;2022-11-14T06:58:25;12.80;99.90
23579;DHT22;11967;50.852;4.400;2022-11-14T07:00:51;12.60;99.90
23579;DHT22;11967;50.852;4.400;2022-11-14T07:03:16;12.60;99.90
23579;DHT22;11967;50.852;4.400;2022-11-14T07:05:43;12.50;99.90
23579;DHT22;11967;50.852;4.400;2022-11-14T07:08:08;12.50;99.90
23579;DHT22;11967;50.852;4.400;2022-11-14T07:10:34;12.50;99.90
23579;DHT22;11967;50.852;4.400;2022-11-14T07:12:59;12.40;99.90
23579;DHT22;11967;50.852;4.400;2022-11-14T07:15:25;12.50;99.90
23579;DHT22;11967;50.852;4.400;2022-11-14T07:17:51;12.40;99.90
23579;DHT22;11967;50.852;4.400;2022-11-14T07:20:16;12.50;99.90
23579;DHT22;11967;50.852;4.400;2022-11-14T07:22:45;12.40;99.90
23579;DHT22;11967;50.852;4.400;2022-11-14T07:25:12;12.40;99.90
23579;DHT22;11967;50.852;4.400;2022-11-14T07:27:37;12.40;99.90
23579;DHT22;11967;50.852;4.400;2022-11-14T07:30:03;12.40;99.90
23579;DHT22;11967;50.852;4.400;2022-11-14T07:32:29;12.40;99.90
23579;DHT22;11967;50.852;4.400;2022-11-14T07:34:55;12.40;99.90
23579;DHT22;11967;50.852;4.400;2022-11-14T07:37:20;12.40;99.90
23579;DHT22;11967;50.852;4.400;2022-11-14T07:39:46;12.40;99.90
23579;DHT22;11967;50.852;4.400;2022-11-14T07:42:11;12.40;99.90
23579;DHT22;11967;50.852;4.400;2022-11-14T07:44:37;12.40;99.90
23579;DHT22;11967;50.852;4.400;2022-11-14T07:47:02;12.20;99.90
23579;DHT22;11967;50.852;4.400;2022-11-14T07:49:28;12.20;99.90
23579;DHT22;11967;50.852;4.400;2022-11-14T07:51:54;12.20;99.90
23579;DHT22;11967;50.852;4.400;2022-11-14T07:54:19;12.20;99.90
23579;DHT22;11967;50.852;4.400;2022-11-14T07:56:45;12.20;99.90
23579;DHT22;11967;50.852;4.400;2022-11-14T07:59:11;12.20;99.90
23579;DHT22;11967;50.852;4.400;2022-11-14T08:01:36;12.10;99.90
23579;DHT22;11967;50.852;4.400;2022-11-14T08:04:02;12.20;99.90
23579;DHT22;11967;50.852;4.400;2022-11-14T08:06:27;12.30;99.90
23579;DHT22;11967;50.852;4.400;2022-11-14T08:08:53;12.30;99.90
23579;DHT22;11967;50.852;4.400;2022-11-14T08:11:19;12.30;99.90
23579;DHT22;11967;50.852;4.400;2022-11-14T08:14:07;12.30;99.90
23579;DHT22;11967;50.852;4.400;2022-11-14T08:16:33;12.40;99.90
23579;DHT22;11967;50.852;4.400;2022-11-14T08:18:59;12.40;99.90
23579;DHT22;11967;50.852;4.400;2022-11-14T08:21:24;12.40;99.90
23579;DHT22;11967;50.852;4.400;2022-11-14T08:23:50;12.40;99.90
23579;DHT22;11967;50.852;4.400;2022-11-14T08:26:15;12.40;99.90
23579;DHT22;11967;50.852;4.400;2022-11-14T08:28:42;12.60;99.90
23579;DHT22;11967;50.852;4.400;2022-11-14T08:31:08;12.60;99.90
23579;DHT22;11967;50.852;4.400;2022-11-14T08:33:35;12.60;99.90
23579;DHT22;11967;50.852;4.400;2022-11-14T08:36:05;12.60;99.90
23579;DHT22;11967;50.852;4.400;2022-11-14T08:38:32;12.70;99.90
23579;DHT22;11967;50.852;4.400;2022-11-14T08:41:01;12.70;99.90
23579;DHT22;11967;50.852;4.400;2022-11-14T08:43:28;12.70;99.90
23579;DHT22;11967;50.852;4.400;2022-11-14T08:46:01;12.60;99.90
23579;DHT22;11967;50.852;4.400;2022-11-14T08:48:27;12.50;99.90
23579;DHT22;11967;50.852;4.400;2022-11-14T08:50:53;12.60;99.90
23579;DHT22;11967;50.852;4.400;2022-11-14T08:53:18;12.50;99.90
23579;DHT22;11967;50.852;4.400;2022-11-14T08:55:45;12.40;99.90
23579;DHT22;11967;50.852;4.400;2022-11-14T08:58:11;12.50;99.90
23579;DHT22;11967;50.852;4.400;2022-11-14T09:00:37;12.40;99.90
23579;DHT22;11967;50.852;4.400;2022-11-14T09:03:09;12.40;99.90
23579;DHT22;11967;50.852;4.400;2022-11-14T09:05:37;12.40;99.90
23579;DHT22;11967;50.852;4.400;2022-11-14T09:08:03;12.50;99.90
23579;DHT22;11967;50.852;4.400;2022-11-14T09:10:28;12.60;99.90
23579;DHT22;11967;50.852;4.400;2022-11-14T09:12:56;12.90;99.90
23579;DHT22;11967;50.852;4.400;2022-11-14T09:15:21;13.10;99.90
23579;DHT22;11967;50.852;4.400;2022-11-14T09:17:47;13.10;99.90
23579;DHT22;11967;50.852;4.400;2022-11-14T09:20:13;13.20;99.90
23579;DHT22;11967;50.852;4.400;2022-11-14T09:22:39;13.30;99.90
23579;DHT22;11967;50.852;4.400;2022-11-14T09:25:05;13.50;99.90
23579;DHT22;11967;50.852;4.400;2022-11-14T09:27:31;13.60;99.90
23579;DHT22;11967;50.852;4.400;2022-11-14T09:29:56;13.80;99.90
23579;DHT22;11967;50.852;4.400;2022-11-14T09:32:24;13.90;99.90
23579;DHT22;11967;50.852;4.400;2022-11-14T09:34:50;14.20;99.90
23579;DHT22;11967;50.852;4.400;2022-11-14T09:37:16;14.30;99.90
23579;DHT22;11967;50.852;4.400;2022-11-14T09:39:41;14.50;99.90
23579;DHT22;11967;50.852;4.400;2022-11-14T09:47:15;14.90;99.90
23579;DHT22;11967;50.852;4.400;2022-11-14T09:49:44;14.80;99.90
23579;DHT22;11967;50.852;4.400;2022-11-14T09:54:51;14.80;99.90
23579;DHT22;11967;50.852;4.400;2022-11-14T09:57:19;14.90;99.90
23579;DHT22;11967;50.852;4.400;2022-11-14T09:59:48;15.10;99.90
23579;DHT22;11967;50.852;4.400;2022-11-14T10:05:23;15.30;99.90
23579;DHT22;11967;50.852;4.400;2022-11-14T10:10:54;15.50;99.90
23579;DHT22;11967;50.852;4.400;2022-11-14T10:13:41;15.80;99.90
23579;DHT22;11967;50.852;4.400;2022-11-14T10:24:39;15.60;99.90
23579;DHT22;11967;50.852;4.400;2022-11-14T10:27:22;15.60;99.90
23579;DHT22;11967;50.852;4.400;2022-11-14T10:30:03;15.50;99.90
23579;DHT22;11967;50.852;4.400;2022-11-14T10:35:24;15.50;99.90
23579;DHT22;11967;50.852;4.400;2022-11-14T10:38:11;15.50;99.90
23579;DHT22;11967;50.852;4.400;2022-11-14T10:40:44;15.50;99.90
23579;DHT22;11967;50.852;4.400;2022-11-14T10:46:06;15.60;99.90
23579;DHT22;11967;50.852;4.400;2022-11-14T10:48:35;15.60;99.90
23579;DHT22;11967;50.852;4.400;2022-11-14T10:51:28;15.60;99.90
23579;DHT22;11967;50.852;4.400;2022-11-14T10:56:20;15.80;99.90
23579;DHT22;11967;50.852;4.400;2022-11-14T10:58:47;16.00;99.90
23579;DHT22;11967;50.852;4.400;2022-11-14T11:01:38;16.20;99.90
23579;DHT22;11967;50.852;4.400;2022-11-14T11:06:49;16.60;99.90
23579;DHT22;11967;50.852;4.400;2022-11-14T11:09:18;16.70;99.90
23579;DHT22;11967;50.852;4.400;2022-11-14T11:12:04;16.70;99.90
23579;DHT22;11967;50.852;4.400;2022-11-14T11:14:31;16.70;99.90
23579;DHT22;11967;50.852;4.400;2022-11-14T11:19:43;16.70;99.90
23579;DHT22;11967;50.852;4.400;2022-11-14T11:22:29;16.70;99.90
23579;DHT22;11967;50.852;4.400;2022-11-14T11:24:57;16.70;99.90
23579;DHT22;11967;50.852;4.400;2022-11-14T11:27:29;16.70;99.90
23579;DHT22;11967;50.852;4.400;2022-11-14T11:30:05;16.80;99.90
23579;DHT22;11967;50.852;4.400;2022-11-14T11:32:31;16.60;99.90
23579;DHT22;11967;50.852;4.400;2022-11-14T11:34:59;16.60;99.90
23579;DHT22;11967;50.852;4.400;2022-11-14T11:37:48;16.40;99.90
23579;DHT22;11967;50.852;4.400;2022-11-14T11:40:23;16.50;99.90
23579;DHT22;11967;50.852;4.400;2022-11-14T11:43:01;16.50;99.90
23579;DHT22;11967;50.852;4.400;2022-11-14T11:45:29;16.50;99.90
23579;DHT22;11967;50.852;4.400;2022-11-14T11:48:07;16.30;99.90
23579;DHT22;11967;50.852;4.400;2022-11-14T11:50:35;16.20;99.90
23579;DHT22;11967;50.852;4.400;2022-11-14T11:53:49;16.10;99.90
23579;DHT22;11967;50.852;4.400;2022-11-14T11:56:25;16.20;99.90
23579;DHT22;11967;50.852;4.400;2022-11-14T11:59:04;16.30;99.90
23579;DHT22;11967;50.852;4.400;2022-11-14T12:01:37;16.40;99.90
23579;DHT22;11967;50.852;4.400;2022-11-14T12:04:03;16.50;99.90
23579;DHT22;11967;50.852;4.400;2022-11-14T12:06:37;16.60;99.90
23579;DHT22;11967;50.852;4.400;2022-11-14T12:11:38;16.60;99.90
23579;DHT22;11967;50.852;4.400;2022-11-14T12:30:38;16.00;99.90
23579;DHT22;11967;50.852;4.400;2022-11-14T12:33:11;15.90;99.90
23579;DHT22;11967;50.852;4.400;2022-11-14T12:35:51;15.60;99.90
23579;DHT22;11967;50.852;4.400;2022-11-14T12:38:18;14.90;99.90
23579;DHT22;11967;50.852;4.400;2022-11-14T12:40:51;14.60;99.90
23579;DHT22;11967;50.852;4.400;2022-11-14T12:43:40;14.30;99.90
23579;DHT22;11967;50.852;4.400;2022-11-14T12:46:12;14.30;99.90
23579;DHT22;11967;50.852;4.400;2022-11-14T12:48:45;14.10;99.90
23579;DHT22;11967;50.852;4.400;2022-11-14T12:53:48;14.00;99.90
23579;DHT22;11967;50.852;4.400;2022-11-14T12:59:38;13.40;99.90
23579;DHT22;11967;50.852;4.400;2022-11-14T13:05:16;13.20;99.90
23579;DHT22;11967;50.852;4.400;2022-11-14T13:07:57;13.10;99.90
23579;DHT22;11967;50.852;4.400;2022-11-14T13:10:31;13.10;99.90
23579;DHT22;11967;50.852;4.400;2022-11-14T13:15:51;13.00;99.90
23579;DHT22;11967;50.852;4.400;2022-11-14T13:18:36;13.00;99.90
23579;DHT22;11967;50.852;4.400;2022-11-14T13:21:32;13.00;99.90
23579;DHT22;11967;50.852;4.400;2022-11-14T13:24:15;13.00;99.90
23579;DHT22;11967;50.852;4.400;2022-11-14T13:26:51;13.00;99.90
23579;DHT22;11967;50.852;4.400;2022-11-14T13:32:11;13.00;99.90
23579;DHT22;11967;50.852;4.400;2022-11-14T13:34:41;12.90;99.90
23579;DHT22;11967;50.852;4.400;2022-11-14T13:40:37;12.80;99.90
23579;DHT22;11967;50.852;4.400;2022-11-14T13:51:20;13.00;99.90
23579;DHT22;11967;50.852;4.400;2022-11-14T13:53:48;12.70;99.90
23579;DHT22;11967;50.852;4.400;2022-11-14T14:10:02;12.50;99.90
23579;DHT22;11967;50.852;4.400;2022-11-14T14:12:42;12.40;99.90
23579;DHT22;11967;50.852;4.400;2022-11-14T14:15:24;12.40;99.90
23579;DHT22;11967;50.852;4.400;2022-11-14T14:27:32;12.50;99.90
23579;DHT22;11967;50.852;4.400;2022-11-14T14:30:10;12.50;99.90
23579;DHT22;11967;50.852;4.400;2022-11-14T14:32:37;12.40;99.90
23579;DHT22;11967;50.852;4.400;2022-11-14T14:37:54;12.60;99.90
23579;DHT22;11967;50.852;4.400;2022-11-14T14:40:26;12.40;99.90
23579;DHT22;11967;50.852;4.400;2022-11-14T14:42:53;12.30;99.90
23579;DHT22;11967;50.852;4.400;2022-11-14T14:45:20;12.20;99.90
23579;DHT22;11967;50.852;4.400;2022-11-14T14:47:49;12.20;99.90
23579;DHT22;11967;50.852;4.400;2022-11-14T14:50:20;12.30;99.90
23579;DHT22;11967;50.852;4.400;2022-11-14T14:52:55;12.50;99.90
23579;DHT22;11967;50.852;4.400;2022-11-14T14:55:27;12.50;99.90
23579;DHT22;11967;50.852;4.400;2022-11-14T14:57:53;12.50;99.90
23579;DHT22;11967;50.852;4.400;2022-11-14T15:00:21;12.50;99.90
23579;DHT22;11967;50.852;4.400;2022-11-14T15:02:51;12.50;99.90
23579;DHT22;11967;50.852;4.400;2022-11-14T15:05:26;12.50;99.90
23579;DHT22;11967;50.852;4.400;2022-11-14T15:07:58;12.50;99.90
23579;DHT22;11967;50.852;4.400;2022-11-14T15:10:27;12.30;99.90
23579;DHT22;11967;50.852;4.400;2022-11-14T15:12:57;12.30;99.90
23579;DHT22;11967;50.852;4.400;2022-11-14T15:15:25;12.30;99.90
23579;DHT22;11967;50.852;4.400;2022-11-14T15:17:53;12.30;99.90
23579;DHT22;11967;50.852;4.400;2022-11-14T15:20:28;12.30;99.90
23579;DHT22;11967;50.852;4.400;2022-11-14T15:23:16;12.20;99.90
23579;DHT22;11967;50.852;4.400;2022-11-14T15:25:42;12.30;99.90
23579;DHT22;11967;50.852;4.400;2022-11-14T15:28:18;12.40;99.90
23579;DHT22;11967;50.852;4.400;2022-11-14T15:31:03;12.30;99.90
23579;DHT22;11967;50.852;4.400;2022-11-14T15:33:34;12.10;99.90
23579;DHT22;11967;50.852;4.400;2022-11-14T15:38:35;12.40;99.90
23579;DHT22;11967;50.852;4.400;2022-11-14T15:41:20;12.30;99.90
23579;DHT22;11967;50.852;4.400;2022-11-14T15:43:48;12.20;99.90
23579;DHT22;11967;50.852;4.400;2022-11-14T15:48:58;12.20;99.90
23579;DHT22;11967;50.852;4.400;2022-11-14T15:51:57;12.10;99.90
23579;DHT22;11967;50.852;4.400;2022-11-14T15:54:31;12.10;99.90
23579;DHT22;11967;50.852;4.400;2022-11-14T15:57:11;12.10;99.90
23579;DHT22;11967;50.852;4.400;2022-11-14T15:59:37;12.00;99.90
23579;DHT22;11967;50.852;4.400;2022-11-14T16:02:15;11.80;99.90
23579;DHT22;11967;50.852;4.400;2022-11-14T16:04:42;11.70;99.90
23579;DHT22;11967;50.852;4.400;2022-11-14T16:07:12;11.80;99.90
23579;DHT22;11967;50.852;4.400;2022-11-14T16:09:40;11.80;99.90
23579;DHT22;11967;50.852;4.400;2022-11-14T16:12:06;11.90;99.90
23579;DHT22;11967;50.852;4.400;2022-11-14T16:14:31;12.00;99.90
23579;DHT22;11967;50.852;4.400;2022-11-14T16:16:57;12.00;99.90
23579;DHT22;11967;50.852;4.400;2022-11-14T16:19:23;12.10;99.90
23579;DHT22;11967;50.852;4.400;2022-11-14T16:21:48;12.10;99.90
23579;DHT22;11967;50.852;4.400;2022-11-14T16:24:19;12.10;99.90
23579;DHT22;11967;50.852;4.400;2022-11-14T16:26:46;12.00;99.90
23579;DHT22;11967;50.852;4.400;2022-11-14T16:29:12;11.90;99.90
23579;DHT22;11967;50.852;4.400;2022-11-14T16:31:39;11.80;99.90
23579;DHT22;11967;50.852;4.400;2022-11-14T16:34:05;11.80;99.90
23579;DHT22;11967;50.852;4.400;2022-11-14T16:36:33;11.80;99.90
23579;DHT22;11967;50.852;4.400;2022-11-14T16:39:01;11.90;99.90
23579;DHT22;11967;50.852;4.400;2022-11-14T16:41:27;11.90;99.90
23579;DHT22;11967;50.852;4.400;2022-11-14T16:43:53;11.80;99.90
23579;DHT22;11967;50.852;4.400;2022-11-14T16:46:20;11.80;99.90
23579;DHT22;11967;50.852;4.400;2022-11-14T16:48:46;11.70;99.90
23579;DHT22;11967;50.852;4.400;2022-11-14T16:51:11;11.70;99.90
23579;DHT22;11967;50.852;4.400;2022-11-14T16:53:37;11.70;99.90
23579;DHT22;11967;50.852;4.400;2022-11-14T16:56:03;11.70;99.90
23579;DHT22;11967;50.852;4.400;2022-11-14T16:58:32;11.70;99.90
23579;DHT22;11967;50.852;4.400;2022-11-14T17:00:58;11.80;99.90
23579;DHT22;11967;50.852;4.400;2022-11-14T17:03:23;11.80;99.90
23579;DHT22;11967;50.852;4.400;2022-11-14T17:05:50;11.90;99.90
23579;DHT22;11967;50.852;4.400;2022-11-14T17:08:16;11.90;99.90
23579;DHT22;11967;50.852;4.400;2022-11-14T17:10:43;11.90;99.90
23579;DHT22;11967;50.852;4.400;2022-11-14T17:13:10;11.90;99.90
23579;DHT22;11967;50.852;4.400;2022-11-14T17:15:36;11.90;99.90
23579;DHT22;11967;50.852;4.400;2022-11-14T17:18:03;11.90;99.90
23579;DHT22;11967;50.852;4.400;2022-11-14T17:20:28;11.70;99.90
23579;DHT22;11967;50.852;4.400;2022-11-14T17:22:54;11.80;99.90
23579;DHT22;11967;50.852;4.400;2022-11-14T17:25:20;11.70;99.90
23579;DHT22;11967;50.852;4.400;2022-11-14T17:27:46;11.70;99.90
23579;DHT22;11967;50.852;4.400;2022-11-14T17:30:16;11.70;99.90